Tropical Cyclones
[Index]
Main Index Home Page Stock Weather Photos Extreme Storms Discussion Storm News and Storm Chasing Reports Tropical Cyclones / Hurricanes / Typhoons Weather Data and Links Wild Fires / Bushfires Weather Observation Techniques Weather Picture Catalogue Tornado Pictures and Reports Stock Video Footage and DVDs for sale
Season 2010-2011 Tropical Cyclone ZELIA Track Map
Season 2010-2011 Summaries: [BoM-AU] [JTWC-AU] [JTWC-SIO] [JTWC-SPAC] [JTWC-SH]
<<- Previous TC | JTWC 2010-2011 Season | Next TC ->>

click for intensity scale information  Lat/long Grid: Show Hide

 Date Labels: Show Hide

Joint Typhoon Warning Centre Cyclone Data

Name: ZELIA

12 Jan 2011 18:00 UTC to 18 Jan 2011 00:00 UTC

    date/time    lat    long     hPa   cat  kts
2011-01-12 18   14.7   150.9    1007         20          
2011-01-13 00   14.5   150.2    1000         30          
2011-01-13 06   13.7   150.1    1000         30          
2011-01-13 12   12.8   149.9     996         35          
2011-01-13 18   12.5   150.4     993    1    40          
2011-01-14 00   12.4   151.0     989    1    45          
2011-01-14 06   12.7   151.3     985    1    50          
2011-01-14 09   12.7   151.7     985    1    50          
2011-01-14 12   13.1   151.9     982    2    55          
2011-01-14 12   13.1   151.9     982    2    55          
2011-01-14 18   14.0   151.8     982    2    55          
2011-01-14 18   14.0   151.8     982    2    55          
2011-01-15 00   14.5   152.2     982    2    55          
2011-01-15 00   14.5   152.2     982    2    55          
2011-01-15 06   15.1   152.4     978    2    60          
2011-01-15 06   15.1   152.4     978    2    60          
2011-01-15 12   15.6   153.2     978    2    60          
2011-01-15 12   15.6   153.2     978    2    60          
2011-01-15 18   16.2   155.0     970    2    70          
2011-01-15 18   16.2   155.0     970    2    70          
2011-01-15 18   16.2   155.0     970    2    70          
2011-01-16 00   17.5   156.9     959    3    85          
2011-01-16 00   17.5   156.9     959    3    85          
2011-01-16 00   17.5   156.9     959    3    85          
2011-01-16 06   19.0   158.8     952    3    95          
2011-01-16 06   19.0   158.8     952    3    95          
2011-01-16 06   19.0   158.8     952    3    95          
2011-01-16 12   20.7   160.8     956    3    90          
2011-01-16 12   20.7   160.8     956    3    90          
2011-01-16 12   20.7   160.8     956    3    90          
2011-01-16 18   22.8   162.9     959    3    85          
2011-01-16 18   22.8   162.9     959    3    85          
2011-01-16 18   22.8   162.9     959    3    85          
2011-01-17 00   25.1   165.1     967    3    75          
2011-01-17 00   25.1   165.1     967    3    75          
2011-01-17 00   25.1   165.1     967    3    75          
2011-01-17 06   27.3   167.3     974    2    65          
2011-01-17 06   27.3   167.3     974    2    65          
2011-01-17 12   30.2   168.5     985    1    50          
2011-01-17 12   30.2   168.5     985    1    50          
2011-01-17 18   33.3   169.4     993    1    40          
2011-01-18 00   36.2   170.2     996         35          
Winds are 1-min average.

Tropical cyclone tracks developed by Michael Bath using data from the Joint Typhoon Warning Centre Best Tracks and Google Maps.


[Australian Severe Weather index] [Copyright Notice] [Email Contacts] [Search This Site] [Privacy Policy]
Document: tropical_cyclone_zelia.htm Updated: 28 June 2017